createdAt,value
2019-02-16T00:01:56.629Z,102075.56
2019-02-16T00:04:29.928Z,102073.72
2019-02-16T00:07:03.208Z,102075.73
2019-02-16T00:09:36.508Z,102070.56
2019-02-16T00:12:10.811Z,102072.24
2019-02-16T00:14:44.186Z,102072.50
2019-02-16T00:17:18.303Z,102071.94
2019-02-16T00:19:51.596Z,102079.75
2019-02-16T00:22:24.887Z,102073.83
2019-02-16T00:24:58.002Z,102076.55
2019-02-16T00:27:32.274Z,102074.41
2019-02-16T00:30:06.821Z,102078.17
2019-02-16T00:32:40.215Z,102079.92
2019-02-16T00:35:13.538Z,102084.28
2019-02-16T00:37:46.838Z,102085.33
2019-02-16T00:40:20.126Z,102083.14
2019-02-16T00:42:53.407Z,102089.53
2019-02-16T00:45:26.707Z,102087.03
2019-02-16T00:47:59.991Z,102088.07
2019-02-16T00:50:33.300Z,102087.11
2019-02-16T00:53:06.576Z,102087.67
2019-02-16T00:55:39.875Z,102090.33
2019-02-16T00:58:13.155Z,102090.41
2019-02-16T01:00:46.469Z,102091.38
2019-02-16T01:03:19.749Z,102092.81
2019-02-16T01:05:53.053Z,102089.91
2019-02-16T01:08:26.357Z,102092.28
2019-02-16T01:10:59.635Z,102083.00
2019-02-16T01:13:32.941Z,102094.10
2019-02-16T01:16:06.226Z,102092.28
2019-02-16T01:18:39.533Z,102093.00
2019-02-16T01:21:12.810Z,102084.61
2019-02-16T01:23:46.108Z,102084.04
2019-02-16T01:26:19.386Z,102088.05
2019-02-16T01:28:52.682Z,102081.86
2019-02-16T01:31:25.983Z,102083.97
2019-02-16T01:33:59.303Z,102077.98
2019-02-16T01:36:32.585Z,102080.75
2019-02-16T01:39:06.469Z,102080.89
2019-02-16T01:41:39.748Z,102085.58
2019-02-16T01:44:13.430Z,102085.73
2019-02-16T01:46:46.707Z,102086.72
2019-02-16T01:49:19.980Z,102081.97
2019-02-16T01:51:53.272Z,102081.68
2019-02-16T01:54:26.573Z,102081.20
2019-02-16T01:56:59.845Z,102081.27
2019-02-16T01:59:33.024Z,102081.09
2019-02-16T02:02:06.320Z,102085.38
2019-02-16T02:04:39.620Z,102078.31
2019-02-16T02:07:12.893Z,102076.95
2019-02-16T02:09:46.189Z,102071.30
2019-02-16T02:12:19.601Z,102068.86
2019-02-16T02:14:52.910Z,102068.53
2019-02-16T02:17:26.212Z,102069.11
2019-02-16T02:20:00.626Z,102074.72
2019-02-16T02:22:33.904Z,102071.48
2019-02-16T02:25:09.749Z,102080.16
2019-02-16T02:27:43.035Z,102073.98
2019-02-16T02:30:17.876Z,102067.34
2019-02-16T02:32:51.164Z,102070.20
2019-02-16T02:35:24.459Z,102068.45
2019-02-16T02:37:57.761Z,102062.14
2019-02-16T02:40:31.076Z,102063.50
2019-02-16T02:43:04.373Z,102054.59
2019-02-16T02:45:37.678Z,102060.39
2019-02-16T02:48:10.956Z,102060.66
2019-02-16T02:50:45.137Z,102052.99
2019-02-16T02:53:18.420Z,102052.67
2019-02-16T02:55:51.715Z,102058.34
2019-02-16T02:58:25.009Z,102067.27
2019-02-16T03:00:58.306Z,102067.39
2019-02-16T03:03:31.592Z,102059.63
2019-02-16T03:06:04.885Z,102058.27
2019-02-16T03:08:38.150Z,102053.63
2019-02-16T03:11:11.447Z,102063.70
2019-02-16T03:13:44.742Z,102055.66
2019-02-16T03:16:18.053Z,102055.84
2019-02-16T03:18:52.308Z,102048.67
2019-02-16T03:21:25.602Z,102048.17
2019-02-16T03:23:58.889Z,102047.28
2019-02-16T03:26:44.370Z,102048.47
2019-02-16T03:29:23.611Z,102055.18
2019-02-16T03:32:14.920Z,102062.00
2019-02-16T03:34:57.403Z,102051.16
2019-02-16T03:37:50.389Z,102053.87
2019-02-16T03:40:23.663Z,102053.11
2019-02-16T03:42:56.964Z,102045.73
2019-02-16T03:45:30.058Z,102050.83
2019-02-16T03:48:03.827Z,102044.23
2019-02-16T03:50:37.112Z,102047.86
2019-02-16T03:53:10.417Z,102049.14
2019-02-16T03:55:43.708Z,102049.77
2019-02-16T03:58:17.028Z,102053.71
2019-02-16T04:00:50.299Z,102059.02
2019-02-16T04:03:24.500Z,102065.31
2019-02-16T04:05:57.784Z,102070.43
2019-02-16T04:08:31.066Z,102082.01
2019-02-16T04:11:04.347Z,102076.20
2019-02-16T04:13:37.636Z,102083.14
2019-02-16T04:16:10.930Z,102085.17
2019-02-16T04:18:44.232Z,102093.63
2019-02-16T04:21:17.516Z,102101.45
2019-02-16T04:23:50.824Z,102108.63
2019-02-16T04:26:24.108Z,102104.89
2019-02-16T04:28:57.227Z,102099.72
2019-02-16T04:31:30.511Z,102084.93
2019-02-16T04:34:03.825Z,102092.27
2019-02-16T04:36:37.096Z,102091.67
2019-02-16T04:39:10.410Z,102089.58
2019-02-16T04:41:43.698Z,102088.97
2019-02-16T04:44:16.992Z,102080.32
2019-02-16T04:46:50.338Z,102082.50
2019-02-16T04:49:23.640Z,102082.39
2019-02-16T04:51:56.732Z,102085.94
2019-02-16T04:54:30.048Z,102076.77
2019-02-16T04:57:03.846Z,102078.38
2019-02-16T04:59:37.154Z,102078.53
2019-02-16T05:02:10.517Z,102075.45
2019-02-16T05:04:43.799Z,102074.41
2019-02-16T05:07:18.428Z,102067.70
2019-02-16T05:09:51.817Z,102067.63
2019-02-16T05:12:25.108Z,102069.27
2019-02-16T05:14:58.396Z,102070.39
2019-02-16T05:17:31.693Z,102068.83
2019-02-16T05:20:06.852Z,102064.08
2019-02-16T05:22:44.696Z,102060.77
2019-02-16T05:25:15.168Z,102054.09
2019-02-16T05:27:48.443Z,102052.15
2019-02-16T05:30:21.758Z,102053.02
2019-02-16T05:32:55.093Z,102058.97
2019-02-16T05:35:28.362Z,102057.34
2019-02-16T05:38:01.669Z,102063.61
2019-02-16T05:40:34.945Z,102060.72
2019-02-16T05:43:08.267Z,102057.25
2019-02-16T05:45:41.543Z,102059.29
2019-02-16T05:48:14.847Z,102068.48
2019-02-16T05:50:48.192Z,102066.88
2019-02-16T05:53:21.502Z,102062.36
2019-02-16T05:55:54.773Z,102060.06
2019-02-16T05:58:28.068Z,102055.62
2019-02-16T06:01:01.340Z,102055.23
2019-02-16T06:03:35.142Z,102052.34
2019-02-16T06:06:08.419Z,102059.75
2019-02-16T06:08:41.723Z,102059.41
2019-02-16T06:11:15.011Z,102061.66
2019-02-16T06:13:48.306Z,102063.69
2019-02-16T06:16:21.592Z,102071.17
2019-02-16T06:18:54.921Z,102071.41
2019-02-16T06:21:28.190Z,102071.20
2019-02-16T06:24:02.592Z,102076.84
2019-02-16T06:26:35.866Z,102076.38
2019-02-16T06:29:09.190Z,102076.36
2019-02-16T06:31:42.468Z,102080.69
2019-02-16T06:34:16.873Z,102084.77
2019-02-16T06:36:50.157Z,102095.06
2019-02-16T06:39:23.470Z,102098.53
2019-02-16T06:41:56.755Z,102098.46
2019-02-16T06:44:30.061Z,102102.56
2019-02-16T06:47:03.343Z,102104.62
2019-02-16T06:49:36.638Z,102106.13
2019-02-16T06:52:09.931Z,102103.45
2019-02-16T06:54:43.202Z,102105.91
2019-02-16T06:57:23.774Z,102109.84
2019-02-16T06:59:57.137Z,102118.92
2019-02-16T07:02:30.433Z,102120.55
2019-02-16T07:05:03.910Z,102124.15
2019-02-16T07:07:37.169Z,102119.86
2019-02-16T07:10:10.481Z,102125.13
2019-02-16T07:12:43.767Z,102128.05
2019-02-16T07:15:17.090Z,102123.26
2019-02-16T07:18:01.255Z,102119.94
2019-02-16T07:20:35.570Z,102121.10
2019-02-16T07:23:08.867Z,102120.16
2019-02-16T07:25:42.186Z,102123.39
2019-02-16T07:28:15.455Z,102122.78
2019-02-16T07:30:48.767Z,102119.20
2019-02-16T07:33:22.067Z,102128.67
2019-02-16T07:35:55.469Z,102126.13
2019-02-16T07:38:28.798Z,102124.63
2019-02-16T07:41:03.362Z,102124.70
2019-02-16T07:43:51.683Z,102129.22
2019-02-16T07:46:32.363Z,102127.15
2019-02-16T07:49:09.973Z,102126.01
2019-02-16T07:51:47.589Z,102123.92
2019-02-16T07:54:34.439Z,102122.06
2019-02-16T07:57:12.312Z,102121.82
2019-02-16T07:59:53.251Z,102122.42
2019-02-16T08:02:28.175Z,102126.20
2019-02-16T08:05:03.168Z,102116.67
2019-02-16T08:07:42.739Z,102119.06
2019-02-16T08:10:17.466Z,102116.30
2019-02-16T08:13:01.069Z,102119.80
2019-02-16T08:15:51.279Z,102120.23
2019-02-16T08:18:26.197Z,102124.83
2019-02-16T08:21:19.159Z,102125.05
2019-02-16T08:24:10.151Z,102119.27
2019-02-16T08:26:45.149Z,102115.95
2019-02-16T08:29:23.046Z,102118.63
2019-02-16T08:31:58.866Z,102122.38
2019-02-16T08:34:33.799Z,102118.78
2019-02-16T08:37:08.743Z,102115.98
2019-02-16T08:39:43.663Z,102115.85
2019-02-16T08:42:22.449Z,102115.77
2019-02-16T08:45:06.286Z,102110.35
2019-02-16T08:47:46.678Z,102105.94
2019-02-16T08:50:29.513Z,102108.16
2019-02-16T08:53:04.244Z,102103.58
2019-02-16T08:55:39.178Z,102098.72
2019-02-16T08:58:17.244Z,102103.61
2019-02-16T09:00:54.962Z,102101.47
2019-02-16T09:03:32.662Z,102099.47
2019-02-16T09:06:12.547Z,102093.48
2019-02-16T09:08:50.212Z,102091.09
2019-02-16T09:11:28.086Z,102092.41
2019-02-16T09:14:19.114Z,102090.54
2019-02-16T09:17:02.749Z,102086.27
2019-02-16T09:19:38.383Z,102079.82
2019-02-16T09:22:17.711Z,102081.22
2019-02-16T09:25:10.815Z,102077.79
2019-02-16T09:27:45.741Z,102075.72
2019-02-16T09:30:24.152Z,102077.02
2019-02-16T09:32:59.064Z,102077.64
2019-02-16T09:35:37.023Z,102076.31
2019-02-16T09:38:21.111Z,102074.46
2019-02-16T09:40:58.780Z,102060.39
2019-02-16T09:43:33.700Z,102057.73
2019-02-16T09:46:24.769Z,102057.86
2019-02-16T09:49:17.724Z,102059.91
2019-02-16T09:52:09.206Z,102054.55
2019-02-16T09:54:46.978Z,102055.70
2019-02-16T09:57:21.914Z,102058.08
2019-02-16T10:00:03.027Z,102054.69
2019-02-16T10:02:39.335Z,102054.53
2019-02-16T10:05:31.483Z,102059.36
2019-02-16T10:08:15.482Z,102056.69
2019-02-16T10:10:53.114Z,102055.02
2019-02-16T10:13:32.358Z,102054.95
2019-02-16T10:16:13.128Z,102054.03
2019-02-16T10:19:00.029Z,102056.09
2019-02-16T10:21:43.665Z,102049.05
2019-02-16T10:24:35.018Z,102054.46
2019-02-16T10:27:13.356Z,102056.66
2019-02-16T10:29:51.247Z,102059.48
2019-02-16T10:32:26.235Z,102052.08
2019-02-16T10:35:03.817Z,102058.83
2019-02-16T10:37:38.796Z,102057.72
2019-02-16T10:40:25.817Z,102055.39
2019-02-16T10:43:06.799Z,102047.50
2019-02-16T10:45:41.717Z,102041.05
2019-02-16T10:48:16.679Z,102046.38
2019-02-16T10:50:57.545Z,102048.09
2019-02-16T10:53:35.351Z,102047.45
2019-02-16T10:56:12.854Z,102037.72
2019-02-16T10:58:53.710Z,102024.88
2019-02-16T11:01:44.660Z,102022.12
2019-02-16T11:04:19.593Z,102020.48
2019-02-16T11:06:55.603Z,102014.55
2019-02-16T11:09:42.365Z,102010.42
2019-02-16T11:12:17.367Z,101998.94
2019-02-16T11:14:55.594Z,101985.08
2019-02-16T11:17:42.723Z,101997.91
2019-02-16T11:20:28.229Z,101988.27
2019-02-16T11:23:18.142Z,101983.22
2019-02-16T11:26:09.909Z,101967.77
2019-02-16T11:28:48.004Z,101976.03
2019-02-16T11:31:28.946Z,101972.81
2019-02-16T11:34:18.855Z,101977.60
2019-02-16T11:36:56.245Z,101966.28
2019-02-16T11:39:49.669Z,101964.95
2019-02-16T11:42:24.602Z,101965.58
2019-02-16T11:45:02.299Z,101957.67
2019-02-16T11:47:42.911Z,101962.53
2019-02-16T11:50:17.927Z,101962.33
2019-02-16T11:53:09.006Z,101963.08
2019-02-16T11:55:58.817Z,101954.34
2019-02-16T11:58:50.215Z,101950.42
2019-02-16T12:01:25.181Z,101938.91
2019-02-16T12:04:03.096Z,101940.81
2019-02-16T12:06:41.198Z,101933.67
2019-02-16T12:09:19.053Z,101933.27
2019-02-16T12:11:54.014Z,101932.80
2019-02-16T12:14:34.472Z,101930.53
2019-02-16T12:17:09.430Z,101932.25
2019-02-16T12:19:44.361Z,101925.63
2019-02-16T12:22:25.251Z,101924.72
2019-02-16T12:25:06.505Z,101930.28
2019-02-16T12:27:41.607Z,101912.73
2019-02-16T12:30:32.492Z,101906.86
2019-02-16T12:33:19.704Z,101912.94
2019-02-16T12:36:10.750Z,101900.98
2019-02-16T12:38:48.783Z,101900.26
2019-02-16T12:41:26.331Z,101892.33
2019-02-16T12:44:13.187Z,101889.14
2019-02-16T12:47:00.106Z,101873.70
2019-02-16T12:49:50.029Z,101871.20
2019-02-16T12:52:40.985Z,101870.17
2019-02-16T12:55:31.709Z,101865.56
2019-02-16T12:58:09.131Z,101871.91
2019-02-16T13:00:49.814Z,101871.14
2019-02-16T13:03:30.768Z,101863.60
2019-02-16T13:06:20.978Z,101849.12
2019-02-16T13:09:13.927Z,101854.08
2019-02-16T13:11:48.895Z,101848.30
2019-02-16T13:14:27.162Z,101840.53
2019-02-16T13:17:05.205Z,101836.27
2019-02-16T13:19:40.136Z,101834.92
2019-02-16T13:22:15.078Z,101828.45
2019-02-16T13:25:08.133Z,101824.28
2019-02-16T13:27:50.636Z,101826.59
2019-02-16T13:30:43.788Z,101822.56
2019-02-16T13:33:33.818Z,101817.55
2019-02-16T13:36:08.886Z,101817.30
2019-02-16T13:38:43.860Z,101819.28
2019-02-16T13:41:24.327Z,101817.31
2019-02-16T13:44:11.489Z,101815.60
2019-02-16T13:46:58.315Z,101820.06
2019-02-16T13:49:33.258Z,101819.45
2019-02-16T13:52:18.593Z,101814.90
2019-02-16T13:54:59.299Z,101817.74
2019-02-16T13:57:34.218Z,101810.09
2019-02-16T14:00:24.790Z,101812.14
2019-02-16T14:03:05.569Z,101814.20
2019-02-16T14:05:40.562Z,101811.44
2019-02-16T14:08:15.514Z,101804.22
2019-02-16T14:10:50.479Z,101800.22
2019-02-16T14:13:43.463Z,101800.27
2019-02-16T14:16:18.409Z,101798.83
2019-02-16T14:18:51.693Z,101798.30
2019-02-16T14:21:26.181Z,101796.14
2019-02-16T14:23:59.412Z,101787.08
2019-02-16T14:26:32.709Z,101799.13
2019-02-16T14:29:06.579Z,101805.63
2019-02-16T14:31:39.893Z,101802.83
2019-02-16T14:34:13.207Z,101804.02
2019-02-16T14:36:47.325Z,101804.62
2019-02-16T14:39:22.259Z,101795.75
2019-02-16T14:41:55.624Z,101786.66
2019-02-16T14:44:28.919Z,101793.78
2019-02-16T14:47:02.497Z,101789.39
2019-02-16T14:49:35.808Z,101784.55
2019-02-16T14:52:09.156Z,101781.86
2019-02-16T14:54:42.467Z,101777.56
2019-02-16T14:57:15.779Z,101784.00
2019-02-16T14:59:49.102Z,101777.73
2019-02-16T15:02:22.422Z,101776.73
2019-02-16T15:04:57.075Z,101773.44
2019-02-16T15:07:30.387Z,101773.53
2019-02-16T15:10:05.415Z,101769.09
2019-02-16T15:12:38.773Z,101773.94
2019-02-16T15:15:12.141Z,101774.94
2019-02-16T15:17:45.431Z,101771.02
2019-02-16T15:20:18.721Z,101769.33
2019-02-16T15:22:52.633Z,101774.26
2019-02-16T15:25:25.905Z,101766.72
2019-02-16T15:27:59.213Z,101761.91
2019-02-16T15:30:32.567Z,101761.72
2019-02-16T15:33:05.852Z,101762.45
2019-02-16T15:35:39.145Z,101759.36
2019-02-16T15:38:12.453Z,101770.45
2019-02-16T15:40:45.742Z,101769.16
2019-02-16T15:43:19.047Z,101762.36
2019-02-16T15:45:52.335Z,101763.02
2019-02-16T15:48:25.715Z,101761.78
2019-02-16T15:50:59.018Z,101764.63
2019-02-16T15:53:32.308Z,101757.80
2019-02-16T15:56:10.427Z,101752.37
2019-02-16T15:58:40.647Z,101756.55
2019-02-16T16:01:13.967Z,101756.55
2019-02-16T16:03:47.302Z,101755.25
2019-02-16T16:06:20.564Z,101753.71
2019-02-16T16:09:01.201Z,101758.29
2019-02-16T16:11:38.536Z,101763.38
2019-02-16T16:14:19.276Z,101762.75
2019-02-16T16:17:10.568Z,101760.35
2019-02-16T16:19:47.918Z,101765.70
2019-02-16T16:22:34.847Z,101770.53
2019-02-16T16:25:18.656Z,101770.56
2019-02-16T16:27:59.585Z,101771.42
2019-02-16T16:30:37.228Z,101771.80
2019-02-16T16:33:30.290Z,101778.36
2019-02-16T16:36:13.995Z,101773.41
2019-02-16T16:39:01.076Z,101778.11
2019-02-16T16:41:36.019Z,101782.67
2019-02-16T16:44:27.177Z,101776.28
2019-02-16T16:47:02.127Z,101777.47
2019-02-16T16:49:37.078Z,101777.43
2019-02-16T16:52:12.009Z,101774.31
2019-02-16T16:54:55.579Z,101776.94
2019-02-16T16:57:30.473Z,101780.75
2019-02-16T17:00:08.335Z,101781.96
2019-02-16T17:02:58.189Z,101790.80
2019-02-16T17:05:52.205Z,101788.23
2019-02-16T17:08:44.666Z,101790.76
2019-02-16T17:11:35.695Z,101787.55
2019-02-16T17:14:22.592Z,101794.26
2019-02-16T17:17:12.502Z,101793.17
2019-02-16T17:19:47.435Z,101804.25
2019-02-16T17:22:25.511Z,101798.12
2019-02-16T17:25:00.499Z,101808.31
2019-02-16T17:27:41.467Z,101806.02
2019-02-16T17:30:22.164Z,101813.13
2019-02-16T17:33:02.625Z,101815.06
2019-02-16T17:35:43.713Z,101818.35
2019-02-16T17:38:21.451Z,101817.22
2019-02-16T17:40:56.402Z,101821.14
2019-02-16T17:43:36.781Z,101815.14
2019-02-16T17:46:14.777Z,101821.38
2019-02-16T17:48:49.756Z,101819.65
2019-02-16T17:51:24.718Z,101821.70
2019-02-16T17:54:17.474Z,101820.02
2019-02-16T17:57:01.593Z,101814.74
2019-02-16T17:59:36.568Z,101814.09
2019-02-16T18:02:14.118Z,101809.84
2019-02-16T18:05:00.805Z,101806.08
2019-02-16T18:07:35.783Z,101811.09
2019-02-16T18:10:19.664Z,101813.66
2019-02-16T18:12:54.609Z,101816.17
2019-02-16T18:15:29.563Z,101807.86
2019-02-16T18:18:07.403Z,101804.78
2019-02-16T18:20:42.323Z,101808.66
2019-02-16T18:23:17.330Z,101807.63
2019-02-16T18:25:58.014Z,101809.22
2019-02-16T18:28:32.982Z,101803.77
2019-02-16T18:31:24.612Z,101807.66
2019-02-16T18:34:15.461Z,101807.72
2019-02-16T18:36:50.418Z,101810.47
2019-02-16T18:39:25.407Z,101810.17
2019-02-16T18:42:03.097Z,101801.98
2019-02-16T18:44:40.962Z,101800.85
2019-02-16T18:47:15.918Z,101798.99
2019-02-16T18:49:53.442Z,101795.31
2019-02-16T18:52:31.427Z,101803.20
2019-02-16T18:55:23.063Z,101802.04
2019-02-16T18:58:14.239Z,101806.69
2019-02-16T19:00:49.231Z,101807.34
2019-02-16T19:03:30.005Z,101802.69
2019-02-16T19:06:04.978Z,101807.25
2019-02-16T19:08:39.920Z,101807.41
2019-02-16T19:11:14.903Z,101805.20
2019-02-16T19:13:55.672Z,101805.88
2019-02-16T19:16:39.409Z,101801.67
2019-02-16T19:19:17.024Z,101808.91
2019-02-16T19:22:07.960Z,101801.92
2019-02-16T19:24:48.858Z,101803.77
2019-02-16T19:27:36.040Z,101788.98
2019-02-16T19:30:23.577Z,101787.72
2019-02-16T19:33:04.517Z,101787.91
2019-02-16T19:35:39.446Z,101784.86
2019-02-16T19:38:17.126Z,101784.12
2019-02-16T19:41:01.228Z,101783.52
2019-02-16T19:43:42.179Z,101778.56
2019-02-16T19:46:23.229Z,101775.28
2019-02-16T19:49:01.049Z,101769.28
2019-02-16T19:51:38.483Z,101772.49
2019-02-16T19:54:19.211Z,101769.00
2019-02-16T19:56:56.864Z,101776.75
2019-02-16T19:59:31.922Z,101777.55
2019-02-16T20:02:15.851Z,101782.02
2019-02-16T20:04:53.673Z,101777.06
2019-02-16T20:07:40.491Z,101780.27
2019-02-16T20:10:21.015Z,101777.80
2019-02-16T20:13:12.459Z,101779.44
2019-02-16T20:15:47.384Z,101780.67
2019-02-16T20:18:24.924Z,101781.04
2019-02-16T20:21:16.285Z,101778.59
2019-02-16T20:24:03.309Z,101780.37
2019-02-16T20:26:38.244Z,101779.00
2019-02-16T20:29:15.906Z,101778.07
2019-02-16T20:32:05.838Z,101785.45
2019-02-16T20:34:49.961Z,101779.52
2019-02-16T20:37:31.060Z,101785.66
2019-02-16T20:40:22.718Z,101782.55
2019-02-16T20:43:09.714Z,101786.61
2019-02-16T20:45:50.311Z,101786.09
2019-02-16T20:48:25.237Z,101786.55
2019-02-16T20:51:00.227Z,101790.28
2019-02-16T20:53:44.004Z,101785.36
2019-02-16T20:56:18.948Z,101788.63
2019-02-16T20:58:53.885Z,101795.02
2019-02-16T21:01:31.525Z,101786.51
2019-02-16T21:04:09.113Z,101782.09
2019-02-16T21:06:49.790Z,101781.64
2019-02-16T21:09:34.006Z,101785.05
2019-02-16T21:12:20.688Z,101795.38
2019-02-16T21:14:55.616Z,101801.17
2019-02-16T21:17:42.472Z,101796.35
2019-02-16T21:20:23.550Z,101791.32
2019-02-16T21:22:58.605Z,101794.45
2019-02-16T21:25:33.511Z,101792.02
2019-02-16T21:28:09.144Z,101792.22
2019-02-16T21:30:44.139Z,101798.73
2019-02-16T21:33:25.210Z,101796.58
2019-02-16T21:36:02.698Z,101798.66
2019-02-16T21:38:51.329Z,101793.54
2019-02-16T21:41:35.378Z,101798.38
2019-02-16T21:44:28.233Z,101797.89
2019-02-16T21:47:03.173Z,101798.45
2019-02-16T21:49:39.520Z,101801.86
2019-02-16T21:52:30.572Z,101807.48
2019-02-16T21:55:06.744Z,101807.54
2019-02-16T21:57:50.732Z,101810.56
2019-02-16T22:00:25.665Z,101811.86
2019-02-16T22:03:06.749Z,101809.03
2019-02-16T22:05:50.227Z,101809.25
2019-02-16T22:08:27.835Z,101810.62
2019-02-16T22:11:14.745Z,101803.54
2019-02-16T22:13:49.178Z,101801.59
2019-02-16T22:16:22.466Z,101798.95
2019-02-16T22:18:55.862Z,101797.92
2019-02-16T22:21:29.234Z,101793.98
2019-02-16T22:24:02.548Z,101797.84
2019-02-16T22:26:35.815Z,101791.75
2019-02-16T22:29:09.167Z,101796.58
2019-02-16T22:31:42.467Z,101790.89
2019-02-16T22:34:17.434Z,101792.43
2019-02-16T22:36:50.775Z,101791.33
2019-02-16T22:39:24.072Z,101789.69
2019-02-16T22:41:57.358Z,101788.90
2019-02-16T22:44:30.678Z,101784.05
2019-02-16T22:47:04.045Z,101781.36
2019-02-16T22:49:38.788Z,101779.07
2019-02-16T22:52:12.075Z,101772.28
2019-02-16T22:54:45.399Z,101775.46
2019-02-16T22:57:18.701Z,101774.92
2019-02-16T22:59:52.016Z,101772.25
2019-02-16T23:02:25.381Z,101774.45
2019-02-16T23:04:59.217Z,101774.75
2019-02-16T23:07:32.532Z,101772.07
2019-02-16T23:10:09.163Z,101765.20
2019-02-16T23:12:42.467Z,101768.89
2019-02-16T23:15:15.838Z,101779.53
2019-02-16T23:17:49.288Z,101782.06
2019-02-16T23:20:22.614Z,101779.13
2019-02-16T23:22:55.915Z,101774.45
2019-02-16T23:25:29.928Z,101773.30
2019-02-16T23:28:03.174Z,101775.14
2019-02-16T23:30:37.753Z,101772.80
2019-02-16T23:33:11.069Z,101783.33
2019-02-16T23:35:44.348Z,101784.02
2019-02-16T23:38:17.658Z,101789.27
2019-02-16T23:40:50.959Z,101781.10
2019-02-16T23:43:24.289Z,101781.31
2019-02-16T23:45:57.573Z,101774.71
2019-02-16T23:48:30.870Z,101779.96
2019-02-16T23:51:05.402Z,101781.50
2019-02-16T23:53:38.684Z,101779.28
2019-02-16T23:56:12.013Z,101782.66
2019-02-16T23:58:49.197Z,101785.66
